sensor_id;sensor_type;location;lat;lon;timestamp;pressure;altitude;pressure_sealevel;temperature;humidity
13968;BME280;39536;52.198;9.920;2023-04-26T00:00:47;100764.41;;;3.87;100.00
13968;BME280;39536;52.198;9.920;2023-04-26T00:03:13;100768.72;;;3.89;100.00
13968;BME280;39536;52.198;9.920;2023-04-26T00:05:40;100775.56;;;4.00;100.00
13968;BME280;39536;52.198;9.920;2023-04-26T00:08:06;100763.56;;;3.83;100.00
13968;BME280;39536;52.198;9.920;2023-04-26T00:10:34;100765.22;;;3.95;100.00
13968;BME280;39536;52.198;9.920;2023-04-26T00:13:01;100769.56;;;3.81;100.00
13968;BME280;39536;52.198;9.920;2023-04-26T00:15:27;100761.81;;;3.85;100.00
13968;BME280;39536;52.198;9.920;2023-04-26T00:17:54;100764.41;;;3.76;100.00
13968;BME280;39536;52.198;9.920;2023-04-26T00:20:20;100774.72;;;3.78;100.00
13968;BME280;39536;52.198;9.920;2023-04-26T00:22:47;100774.72;;;3.75;100.00
13968;BME280;39536;52.198;9.920;2023-04-26T00:25:13;100775.56;;;3.64;100.00
13968;BME280;39536;52.198;9.920;2023-04-26T00:27:41;100762.69;;;3.69;100.00
13968;BME280;39536;52.198;9.920;2023-04-26T00:30:08;100772.16;;;3.75;100.00
13968;BME280;39536;52.198;9.920;2023-04-26T00:32:35;100768.72;;;3.73;100.00
13968;BME280;39536;52.198;9.920;2023-04-26T00:35:02;100772.97;;;3.89;100.00
13968;BME280;39536;52.198;9.920;2023-04-26T00:37:29;100771.25;;;3.97;100.00
13968;BME280;39536;52.198;9.920;2023-04-26T00:39:55;100773.81;;;4.00;100.00
13968;BME280;39536;52.198;9.920;2023-04-26T00:42:22;100771.22;;;4.11;100.00
13968;BME280;39536;52.198;9.920;2023-04-26T00:44:50;100774.66;;;4.16;100.00
13968;BME280;39536;52.198;9.920;2023-04-26T00:47:19;100772.06;;;4.22;100.00
13968;BME280;39536;52.198;9.920;2023-04-26T00:49:45;100777.25;;;4.14;100.00
13968;BME280;39536;52.198;9.920;2023-04-26T00:52:12;100771.22;;;4.11;100.00
13968;BME280;39536;52.198;9.920;2023-04-26T00:54:39;100777.25;;;4.11;100.00
13968;BME280;39536;52.198;9.920;2023-04-26T00:57:06;100768.63;;;4.08;100.00
13968;BME280;39536;52.198;9.920;2023-04-26T00:59:33;100780.66;;;4.16;100.00
13968;BME280;39536;52.198;9.920;2023-04-26T01:02:02;100770.34;;;4.16;100.00
13968;BME280;39536;52.198;9.920;2023-04-26T01:04:29;100770.34;;;4.16;100.00
13968;BME280;39536;52.198;9.920;2023-04-26T01:06:55;100768.66;;;4.05;100.00
13968;BME280;39536;52.198;9.920;2023-04-26T01:09:22;100766.06;;;4.11;100.00
13968;BME280;39536;52.198;9.920;2023-04-26T01:11:49;100772.97;;;4.00;100.00
13968;BME280;39536;52.198;9.920;2023-04-26T01:14:17;100773.84;;;3.89;100.00
13968;BME280;39536;52.198;9.920;2023-04-26T01:16:44;100778.16;;;3.78;100.00
13968;BME280;39536;52.198;9.920;2023-04-26T01:19:13;100779.00;;;3.76;100.00
13968;BME280;39536;52.198;9.920;2023-04-26T01:21:41;100790.19;;;3.72;100.00
13968;BME280;39536;52.198;9.920;2023-04-26T01:24:10;100784.16;;;3.86;100.00
13968;BME280;39536;52.198;9.920;2023-04-26T01:26:37;100787.59;;;3.82;100.00
13968;BME280;39536;52.198;9.920;2023-04-26T01:29:12;100785.03;;;3.81;100.00
13968;BME280;39536;52.198;9.920;2023-04-26T01:31:39;100786.75;;;3.89;100.00
13968;BME280;39536;52.198;9.920;2023-04-26T01:34:06;100785.00;;;3.88;100.00
13968;BME280;39536;52.198;9.920;2023-04-26T01:36:32;100797.06;;;3.68;100.00
13968;BME280;39536;52.198;9.920;2023-04-26T01:38:59;100790.16;;;3.73;100.00
13968;BME280;39536;52.198;9.920;2023-04-26T01:41:26;100788.47;;;3.75;100.00
13968;BME280;39536;52.198;9.920;2023-04-26T01:43:53;100796.16;;;3.80;100.00
13968;BME280;39536;52.198;9.920;2023-04-26T01:46:20;100786.72;;;3.82;100.00
13968;BME280;39536;52.198;9.920;2023-04-26T01:48:46;100790.16;;;3.76;100.00
13968;BME280;39536;52.198;9.920;2023-04-26T01:51:13;100794.47;;;3.77;100.00
13968;BME280;39536;52.198;9.920;2023-04-26T01:53:40;100791.03;;;3.46;100.00
13968;BME280;39536;52.198;9.920;2023-04-26T01:56:07;100785.91;;;3.46;100.00
13968;BME280;39536;52.198;9.920;2023-04-26T01:58:35;100791.88;;;3.19;100.00
13968;BME280;39536;52.198;9.920;2023-04-26T02:01:05;100794.44;;;3.16;100.00
13968;BME280;39536;52.198;9.920;2023-04-26T02:03:32;100791.00;;;3.12;100.00
13968;BME280;39536;52.198;9.920;2023-04-26T02:05:58;100789.25;;;3.14;100.00
13968;BME280;39536;52.198;9.920;2023-04-26T02:08:25;100791.03;;;3.21;100.00
13968;BME280;39536;52.198;9.920;2023-04-26T02:10:51;100800.44;;;3.22;100.00
13968;BME280;39536;52.198;9.920;2023-04-26T02:13:18;100790.16;;;3.30;100.00
13968;BME280;39536;52.198;9.920;2023-04-26T02:15:46;100797.03;;;3.39;100.00
13968;BME280;39536;52.198;9.920;2023-04-26T02:18:13;100791.03;;;3.32;100.00
13968;BME280;39536;52.198;9.920;2023-04-26T02:20:40;100789.31;;;3.39;100.00
13968;BME280;39536;52.198;9.920;2023-04-26T02:23:07;100796.19;;;3.51;100.00
13968;BME280;39536;52.198;9.920;2023-04-26T02:25:33;100788.44;;;3.41;100.00
13968;BME280;39536;52.198;9.920;2023-04-26T02:28:00;100787.59;;;3.42;100.00
13968;BME280;39536;52.198;9.920;2023-04-26T02:30:27;100791.03;;;3.41;100.00
13968;BME280;39536;52.198;9.920;2023-04-26T02:32:55;100783.31;;;3.49;100.00
13968;BME280;39536;52.198;9.920;2023-04-26T02:35:21;100791.06;;;3.55;100.00
13968;BME280;39536;52.198;9.920;2023-04-26T02:37:48;100794.44;;;3.42;100.00
13968;BME280;39536;52.198;9.920;2023-04-26T02:40:16;100792.75;;;3.44;100.00
13968;BME280;39536;52.198;9.920;2023-04-26T02:42:44;100794.47;;;3.53;100.00
13968;BME280;39536;52.198;9.920;2023-04-26T02:45:10;100796.16;;;3.35;100.00
13968;BME280;39536;52.198;9.920;2023-04-26T02:47:37;100797.88;;;3.32;100.00
13968;BME280;39536;52.198;9.920;2023-04-26T02:50:06;100804.72;;;3.19;100.00
13968;BME280;39536;52.198;9.920;2023-04-26T02:52:33;100788.47;;;3.34;100.00
13968;BME280;39536;52.198;9.920;2023-04-26T02:55:00;100792.72;;;3.42;100.00
13968;BME280;39536;52.198;9.920;2023-04-26T02:57:30;100798.75;;;3.51;100.00
13968;BME280;39536;52.198;9.920;2023-04-26T03:00:08;100795.34;;;3.59;100.00
13968;BME280;39536;52.198;9.920;2023-04-26T03:02:51;100794.47;;;3.65;100.00
13968;BME280;39536;52.198;9.920;2023-04-26T03:05:56;100798.78;;;3.55;100.00
13968;BME280;39536;52.198;9.920;2023-04-26T03:08:35;100795.28;;;3.33;100.00
13968;BME280;39536;52.198;9.920;2023-04-26T03:11:47;100794.44;;;3.28;100.00
13968;BME280;39536;52.198;9.920;2023-04-26T03:14:39;100796.16;;;3.35;100.00
13968;BME280;39536;52.198;9.920;2023-04-26T03:17:50;100790.13;;;3.09;100.00
13968;BME280;39536;52.198;9.920;2023-04-26T03:27:15;100795.31;;;3.15;100.00
13968;BME280;39536;52.198;9.920;2023-04-26T03:29:42;100796.13;;;3.17;100.00
13968;BME280;39536;52.198;9.920;2023-04-26T03:32:08;100797.03;;;3.25;100.00
13968;BME280;39536;52.198;9.920;2023-04-26T03:34:35;100794.47;;;3.31;100.00
13968;BME280;39536;52.198;9.920;2023-04-26T03:37:01;100791.91;;;3.43;100.00
13968;BME280;39536;52.198;9.920;2023-04-26T03:39:28;100787.59;;;3.29;100.00
13968;BME280;39536;52.198;9.920;2023-04-26T03:41:55;100794.44;;;3.23;100.00
13968;BME280;39536;52.198;9.920;2023-04-26T03:44:23;100801.31;;;3.28;100.00
13968;BME280;39536;52.198;9.920;2023-04-26T03:46:50;100799.63;;;3.37;100.00
13968;BME280;39536;52.198;9.920;2023-04-26T03:49:16;100800.47;;;3.42;100.00
13968;BME280;39536;52.198;9.920;2023-04-26T03:51:43;100797.91;;;3.38;100.00
13968;BME280;39536;52.198;9.920;2023-04-26T03:54:10;100800.47;;;3.35;100.00
13968;BME280;39536;52.198;9.920;2023-04-26T03:56:36;100810.72;;;3.16;100.00
13968;BME280;39536;52.198;9.920;2023-04-26T03:59:04;100807.28;;;3.11;100.00
13968;BME280;39536;52.198;9.920;2023-04-26T04:01:32;100807.31;;;3.23;100.00
13968;BME280;39536;52.198;9.920;2023-04-26T04:03:59;100799.59;;;3.33;100.00
13968;BME280;39536;52.198;9.920;2023-04-26T04:06:26;100806.50;;;3.37;100.00
13968;BME280;39536;52.198;9.920;2023-04-26T04:08:52;100792.72;;;3.36;100.00
13968;BME280;39536;52.198;9.920;2023-04-26T04:11:20;100797.88;;;3.30;100.00
13968;BME280;39536;52.198;9.920;2023-04-26T04:13:47;100797.88;;;3.30;100.00
13968;BME280;39536;52.198;9.920;2023-04-26T04:16:13;100803.03;;;3.27;100.00
13968;BME280;39536;52.198;9.920;2023-04-26T04:18:42;100792.72;;;3.13;100.00
13968;BME280;39536;52.198;9.920;2023-04-26T04:21:08;100801.28;;;3.12;100.00
13968;BME280;39536;52.198;9.920;2023-04-26T04:23:35;100800.41;;;2.99;100.00
13968;BME280;39536;52.198;9.920;2023-04-26T04:26:01;100805.59;;;3.15;100.00
13968;BME280;39536;52.198;9.920;2023-04-26T04:28:28;100808.16;;;3.09;100.00
13968;BME280;39536;52.198;9.920;2023-04-26T04:30:55;100809.00;;;3.09;100.00
13968;BME280;39536;52.198;9.920;2023-04-26T04:33:22;100810.72;;;3.06;100.00
13968;BME280;39536;52.198;9.920;2023-04-26T04:35:51;100811.56;;;3.14;100.00
13968;BME280;39536;52.198;9.920;2023-04-26T04:38:18;100815.03;;;3.25;100.00
13968;BME280;39536;52.198;9.920;2023-04-26T04:40:46;100809.91;;;3.42;100.00
13968;BME280;39536;52.198;9.920;2023-04-26T04:43:14;100817.63;;;3.36;100.00
13968;BME280;39536;52.198;9.920;2023-04-26T04:45:41;100812.47;;;3.28;100.00
13968;BME280;39536;52.198;9.920;2023-04-26T04:48:07;100817.59;;;3.19;100.00
13968;BME280;39536;52.198;9.920;2023-04-26T04:50:35;100812.47;;;3.28;100.00
13968;BME280;39536;52.198;9.920;2023-04-26T04:53:04;100821.03;;;3.16;100.00
13968;BME280;39536;52.198;9.920;2023-04-26T04:55:30;100818.47;;;3.33;100.00
13968;BME280;39536;52.198;9.920;2023-04-26T04:57:58;100815.06;;;3.28;100.00
13968;BME280;39536;52.198;9.920;2023-04-26T05:00:24;100817.63;;;3.42;100.00
13968;BME280;39536;52.198;9.920;2023-04-26T05:02:51;100822.81;;;3.56;100.00
13968;BME280;39536;52.198;9.920;2023-04-26T05:05:18;100811.63;;;3.57;100.00
13968;BME280;39536;52.198;9.920;2023-04-26T05:07:45;100815.09;;;3.62;100.00
13968;BME280;39536;52.198;9.920;2023-04-26T05:10:13;100817.66;;;3.68;100.00
13968;BME280;39536;52.198;9.920;2023-04-26T05:12:40;100821.94;;;3.77;100.00
13968;BME280;39536;52.198;9.920;2023-04-26T05:15:07;100814.22;;;3.90;100.00
13968;BME280;39536;52.198;9.920;2023-04-26T05:17:34;100813.34;;;3.98;100.00
13968;BME280;39536;52.198;9.920;2023-04-26T05:20:01;100821.91;;;4.07;100.00
13968;BME280;39536;52.198;9.920;2023-04-26T05:22:31;100819.38;;;3.93;100.00
13968;BME280;39536;52.198;9.920;2023-04-26T05:25:00;100827.97;;;3.89;100.00
13968;BME280;39536;52.198;9.920;2023-04-26T05:27:30;100827.97;;;3.73;100.00
13968;BME280;39536;52.198;9.920;2023-04-26T05:29:56;100827.97;;;3.71;100.00
13968;BME280;39536;52.198;9.920;2023-04-26T05:32:23;100831.38;;;3.64;100.00
13968;BME280;39536;52.198;9.920;2023-04-26T05:34:50;100833.97;;;3.90;100.00
13968;BME280;39536;52.198;9.920;2023-04-26T05:37:16;100836.56;;;3.87;100.00
13968;BME280;39536;52.198;9.920;2023-04-26T05:39:43;100844.28;;;3.79;100.00
13968;BME280;39536;52.198;9.920;2023-04-26T05:42:09;100846.84;;;3.76;100.00
13968;BME280;39536;52.198;9.920;2023-04-26T05:44:37;100847.69;;;3.92;100.00
13968;BME280;39536;52.198;9.920;2023-04-26T05:47:04;100846.84;;;3.85;100.00
13968;BME280;39536;52.198;9.920;2023-04-26T05:49:30;100858.03;;;4.06;100.00
13968;BME280;39536;52.198;9.920;2023-04-26T05:51:58;100858.00;;;4.04;100.00
13968;BME280;39536;52.198;9.920;2023-04-26T05:54:24;100858.00;;;4.18;100.00
13968;BME280;39536;52.198;9.920;2023-04-26T05:56:51;100858.00;;;4.18;100.00
13968;BME280;39536;52.198;9.920;2023-04-26T05:59:18;100861.44;;;4.08;100.00
13968;BME280;39536;52.198;9.920;2023-04-26T06:01:46;100864.91;;;4.14;100.00
13968;BME280;39536;52.198;9.920;2023-04-26T06:04:13;100866.56;;;4.23;100.00
13968;BME280;39536;52.198;9.920;2023-04-26T06:06:39;100852.84;;;4.23;100.00
13968;BME280;39536;52.198;9.920;2023-04-26T06:09:06;100856.25;;;4.43;100.00
13968;BME280;39536;52.198;9.920;2023-04-26T06:11:34;100855.38;;;4.49;100.00
13968;BME280;39536;52.198;9.920;2023-04-26T06:14:00;100859.63;;;4.57;100.00
13968;BME280;39536;52.198;9.920;2023-04-26T06:16:27;100854.47;;;4.51;100.00
13968;BME280;39536;52.198;9.920;2023-04-26T06:18:55;100859.59;;;4.70;100.00
13968;BME280;39536;52.198;9.920;2023-04-26T06:21:22;100854.50;;;4.50;100.00
13968;BME280;39536;52.198;9.920;2023-04-26T06:23:48;100855.28;;;4.70;100.00
13968;BME280;39536;52.198;9.920;2023-04-26T06:26:15;100861.31;;;4.77;100.00
13968;BME280;39536;52.198;9.920;2023-04-26T06:28:41;100855.22;;;4.90;100.00
13968;BME280;39536;52.198;9.920;2023-04-26T06:31:08;100861.25;;;4.89;100.00
13968;BME280;39536;52.198;9.920;2023-04-26T06:33:35;100860.38;;;4.96;100.00
13968;BME280;39536;52.198;9.920;2023-04-26T06:36:03;100873.22;;;5.01;100.00
13968;BME280;39536;52.198;9.920;2023-04-26T06:38:30;100865.66;;;4.59;100.00
13968;BME280;39536;52.198;9.920;2023-04-26T06:40:56;100862.16;;;4.80;100.00
13968;BME280;39536;52.198;9.920;2023-04-26T06:43:23;100864.72;;;4.80;100.00
13968;BME280;39536;52.198;9.920;2023-04-26T06:45:50;100868.94;;;5.01;100.00
13968;BME280;39536;52.198;9.920;2023-04-26T06:48:16;100878.34;;;5.16;100.00
13968;BME280;39536;52.198;9.920;2023-04-26T06:50:43;100866.22;;;5.29;100.00
13968;BME280;39536;52.198;9.920;2023-04-26T06:53:12;100867.13;;;5.23;100.00
13968;BME280;39536;52.198;9.920;2023-04-26T06:55:38;100881.66;;;5.43;100.00
13968;BME280;39536;52.198;9.920;2023-04-26T06:58:05;100876.50;;;5.38;100.00
13968;BME280;39536;52.198;9.920;2023-04-26T07:00:31;100871.25;;;5.55;100.00
13968;BME280;39536;52.198;9.920;2023-04-26T07:02:58;100884.00;;;5.75;100.00
13968;BME280;39536;52.198;9.920;2023-04-26T07:05:25;100883.31;;;5.50;100.00
13968;BME280;39536;52.198;9.920;2023-04-26T07:07:51;100879.81;;;5.62;100.00
13968;BME280;39536;52.198;9.920;2023-04-26T07:10:19;100860.69;;;5.84;100.00
13968;BME280;39536;52.198;9.920;2023-04-26T07:12:46;100871.81;;;5.98;100.00
13968;BME280;39536;52.198;9.920;2023-04-26T07:15:13;100877.81;;;5.97;100.00
13968;BME280;39536;52.198;9.920;2023-04-26T07:17:39;100874.19;;;6.21;100.00
13968;BME280;39536;52.198;9.920;2023-04-26T07:20:07;100871.59;;;6.21;100.00
13968;BME280;39536;52.198;9.920;2023-04-26T07:22:34;100876.78;;;6.20;100.00
13968;BME280;39536;52.198;9.920;2023-04-26T07:25:01;100872.28;;;6.40;100.00
13968;BME280;39536;52.198;9.920;2023-04-26T07:27:30;100869.66;;;6.43;100.00
13968;BME280;39536;52.198;9.920;2023-04-26T07:29:57;100864.22;;;6.68;100.00
13968;BME280;39536;52.198;9.920;2023-04-26T07:32:23;100871.66;;;6.96;100.00
13968;BME280;39536;52.198;9.920;2023-04-26T07:34:50;100869.53;;;6.56;100.00
13968;BME280;39536;52.198;9.920;2023-04-26T07:37:17;100899.00;;;6.41;100.00
13968;BME280;39536;52.198;9.920;2023-04-26T07:39:43;100886.91;;;6.41;100.00
13968;BME280;39536;52.198;9.920;2023-04-26T07:42:10;100880.84;;;6.45;100.00
13968;BME280;39536;52.198;9.920;2023-04-26T07:44:38;100867.06;;;6.43;100.00
13968;BME280;39536;52.198;9.920;2023-04-26T07:47:10;100882.75;;;6.30;100.00
13968;BME280;39536;52.198;9.920;2023-04-26T07:49:36;100878.25;;;6.44;100.00
13968;BME280;39536;52.198;9.920;2023-04-26T07:52:03;100876.50;;;6.47;100.00
13968;BME280;39536;52.198;9.920;2023-04-26T07:54:29;100881.84;;;6.29;100.00
13968;BME280;39536;52.198;9.920;2023-04-26T07:56:56;100875.81;;;6.29;100.00
13968;BME280;39536;52.198;9.920;2023-04-26T07:59:23;100889.78;;;6.12;100.00
13968;BME280;39536;52.198;9.920;2023-04-26T08:01:51;100882.94;;;6.08;100.00
13968;BME280;39536;52.198;9.920;2023-04-26T08:04:23;100892.41;;;6.06;100.00
13968;BME280;39536;52.198;9.920;2023-04-26T08:06:55;100885.44;;;6.16;100.00
13968;BME280;39536;52.198;9.920;2023-04-26T08:09:22;100886.03;;;6.45;100.00
13968;BME280;39536;52.198;9.920;2023-04-26T08:11:48;100889.31;;;6.60;100.00
13968;BME280;39536;52.198;9.920;2023-04-26T08:14:15;100886.41;;;6.87;100.00
13968;BME280;39536;52.198;9.920;2023-04-26T08:16:43;100873.38;;;6.97;100.00
13968;BME280;39536;52.198;9.920;2023-04-26T08:19:11;100874.84;;;7.16;100.00
13968;BME280;39536;52.198;9.920;2023-04-26T08:21:37;100885.69;;;6.79;100.00
13968;BME280;39536;52.198;9.920;2023-04-26T08:24:05;100871.06;;;6.72;100.00
13968;BME280;39536;52.198;9.920;2023-04-26T08:26:31;100882.38;;;6.65;100.00
13968;BME280;39536;52.198;9.920;2023-04-26T08:28:58;100877.06;;;6.76;100.00
13968;BME280;39536;52.198;9.920;2023-04-26T08:31:25;100879.31;;;7.03;100.00
13968;BME280;39536;52.198;9.920;2023-04-26T08:33:51;100874.94;;;7.08;100.00
13968;BME280;39536;52.198;9.920;2023-04-26T08:36:19;100874.50;;;7.42;100.00
13968;BME280;39536;52.198;9.920;2023-04-26T08:38:46;100877.41;;;7.78;100.00
13968;BME280;39536;52.198;9.920;2023-04-26T08:41:12;100883.34;;;7.27;100.00
13968;BME280;39536;52.198;9.920;2023-04-26T08:43:40;100871.19;;;7.32;100.00
13968;BME280;39536;52.198;9.920;2023-04-26T08:46:12;100880.41;;;7.50;100.00
13968;BME280;39536;52.198;9.920;2023-04-26T08:48:42;100884.84;;;7.44;100.00
13968;BME280;39536;52.198;9.920;2023-04-26T08:51:09;100848.00;;;7.22;100.00
13968;BME280;39536;52.198;9.920;2023-04-26T08:53:40;100867.72;;;7.32;100.00
13968;BME280;39536;52.198;9.920;2023-04-26T08:56:07;100887.63;;;7.30;100.00
13968;BME280;39536;52.198;9.920;2023-04-26T08:58:36;100895.38;;;7.31;100.00
13968;BME280;39536;52.198;9.920;2023-04-26T09:01:04;100879.84;;;7.30;100.00
13968;BME280;39536;52.198;9.920;2023-04-26T09:03:32;100888.28;;;7.46;100.00
13968;BME280;39536;52.198;9.920;2023-04-26T09:05:59;100871.81;;;7.48;100.00
13968;BME280;39536;52.198;9.920;2023-04-26T09:08:27;100878.56;;;7.58;100.00
13968;BME280;39536;52.198;9.920;2023-04-26T09:10:55;100862.19;;;7.56;100.00
13968;BME280;39536;52.198;9.920;2023-04-26T09:13:27;100894.09;;;7.61;100.00
13968;BME280;39536;52.198;9.920;2023-04-26T09:15:54;100867.38;;;7.56;100.00
13968;BME280;39536;52.198;9.920;2023-04-26T09:18:22;100878.72;;;7.49;100.00
13968;BME280;39536;52.198;9.920;2023-04-26T09:21:01;100883.13;;;7.43;100.00
13968;BME280;39536;52.198;9.920;2023-04-26T09:23:28;100883.03;;;7.49;100.00
13968;BME280;39536;52.198;9.920;2023-04-26T09:26:13;100880.28;;;7.59;100.00
13968;BME280;39536;52.198;9.920;2023-04-26T09:28:40;100876.97;;;7.50;100.00
13968;BME280;39536;52.198;9.920;2023-04-26T09:31:06;100872.22;;;7.78;100.00
13968;BME280;39536;52.198;9.920;2023-04-26T09:33:33;100871.69;;;8.12;100.00
13968;BME280;39536;52.198;9.920;2023-04-26T09:36:10;100861.63;;;8.44;100.00
13968;BME280;39536;52.198;9.920;2023-04-26T09:38:41;100882.59;;;8.32;100.00
13968;BME280;39536;52.198;9.920;2023-04-26T09:41:09;100874.84;;;8.29;100.00
13968;BME280;39536;52.198;9.920;2023-04-26T09:43:36;100858.44;;;8.27;100.00
13968;BME280;39536;52.198;9.920;2023-04-26T09:46:03;100882.00;;;8.16;100.00
13968;BME280;39536;52.198;9.920;2023-04-26T09:48:31;100875.13;;;8.14;100.00
13968;BME280;39536;52.198;9.920;2023-04-26T09:51:08;100877.59;;;8.20;100.00
13968;BME280;39536;52.198;9.920;2023-04-26T09:53:37;100879.09;;;8.31;100.00
13968;BME280;39536;52.198;9.920;2023-04-26T09:56:06;100886.16;;;8.25;100.00
13968;BME280;39536;52.198;9.920;2023-04-26T09:58:36;100889.78;;;8.16;100.00
13968;BME280;39536;52.198;9.920;2023-04-26T10:01:06;100883.19;;;7.95;100.00
13968;BME280;39536;52.198;9.920;2023-04-26T10:03:34;100895.31;;;7.93;100.00
13968;BME280;39536;52.198;9.920;2023-04-26T10:06:01;100891.94;;;7.88;100.00
13968;BME280;39536;52.198;9.920;2023-04-26T10:08:28;100895.97;;;8.06;100.00
13968;BME280;39536;52.198;9.920;2023-04-26T10:10:56;100883.34;;;7.86;100.00
13968;BME280;39536;52.198;9.920;2023-04-26T10:13:23;100878.16;;;7.84;100.00
13968;BME280;39536;52.198;9.920;2023-04-26T10:15:52;100892.13;;;7.77;100.00
13968;BME280;39536;52.198;9.920;2023-04-26T10:18:19;100890.91;;;8.00;100.00
13968;BME280;39536;52.198;9.920;2023-04-26T10:20:49;100891.72;;;8.02;100.00
13968;BME280;39536;52.198;9.920;2023-04-26T10:23:19;100885.38;;;8.20;100.00
13968;BME280;39536;52.198;9.920;2023-04-26T10:25:47;100885.06;;;8.37;100.00
13968;BME280;39536;52.198;9.920;2023-04-26T10:28:14;100890.25;;;8.40;100.00
13968;BME280;39536;52.198;9.920;2023-04-26T10:30:55;100878.06;;;8.45;100.00
13968;BME280;39536;52.198;9.920;2023-04-26T10:33:23;100882.41;;;8.43;100.00
13968;BME280;39536;52.198;9.920;2023-04-26T10:36:14;100885.56;;;8.59;100.00
13968;BME280;39536;52.198;9.920;2023-04-26T10:39:16;100875.41;;;8.46;100.00
13968;BME280;39536;52.198;9.920;2023-04-26T10:41:43;100873.50;;;8.56;100.00
13968;BME280;39536;52.198;9.920;2023-04-26T10:44:38;100896.28;;;8.42;100.00
13968;BME280;39536;52.198;9.920;2023-04-26T10:47:20;100881.75;;;8.28;100.00
13968;BME280;39536;52.198;9.920;2023-04-26T10:49:47;100881.31;;;8.03;100.00
13968;BME280;39536;52.198;9.920;2023-04-26T10:52:14;100873.56;;;8.02;100.00
13968;BME280;39536;52.198;9.920;2023-04-26T10:54:46;100882.91;;;8.14;100.00
13968;BME280;39536;52.198;9.920;2023-04-26T10:57:13;100887.34;;;8.07;100.00
13968;BME280;39536;52.198;9.920;2023-04-26T10:59:40;100873.06;;;8.31;100.00
13968;BME280;39536;52.198;9.920;2023-04-26T11:02:52;100880.78;;;8.34;100.00
13968;BME280;39536;52.198;9.920;2023-04-26T11:05:40;100879.75;;;8.47;100.00
13968;BME280;39536;52.198;9.920;2023-04-26T11:08:14;100869.69;;;8.74;100.00
13968;BME280;39536;52.198;9.920;2023-04-26T11:10:42;100872.06;;;8.41;100.00
13968;BME280;39536;52.198;9.920;2023-04-26T11:13:08;100864.50;;;8.74;100.00
13968;BME280;39536;52.198;9.920;2023-04-26T11:15:37;100872.94;;;8.85;95.59
13968;BME280;39536;52.198;9.920;2023-04-26T11:18:05;100863.97;;;9.00;92.54
13968;BME280;39536;52.198;9.920;2023-04-26T11:20:31;100860.84;;;9.63;89.50
13968;BME280;39536;52.198;9.920;2023-04-26T11:22:59;100860.22;;;9.89;86.45
13968;BME280;39536;52.198;9.920;2023-04-26T11:25:26;100866.59;;;10.46;83.05
13968;BME280;39536;52.198;9.920;2023-04-26T11:27:58;100858.84;;;10.10;82.40
13968;BME280;39536;52.198;9.920;2023-04-26T11:30:27;100857.44;;;9.97;83.62
13968;BME280;39536;52.198;9.920;2023-04-26T11:32:53;100861.66;;;9.65;81.58
13968;BME280;39536;52.198;9.920;2023-04-26T11:35:22;100867.03;;;9.19;85.62
13968;BME280;39536;52.198;9.920;2023-04-26T11:37:50;100865.59;;;8.62;87.44
13968;BME280;39536;52.198;9.920;2023-04-26T11:40:17;100866.16;;;8.78;91.38
13968;BME280;39536;52.198;9.920;2023-04-26T11:42:44;100866.81;;;8.88;91.26
13968;BME280;39536;52.198;9.920;2023-04-26T11:45:11;100876.34;;;8.89;93.10
13968;BME280;39536;52.198;9.920;2023-04-26T11:47:40;100873.81;;;8.86;95.79
13968;BME280;39536;52.198;9.920;2023-04-26T11:50:08;100885.78;;;8.93;96.21
13968;BME280;39536;52.198;9.920;2023-04-26T11:52:37;100877.03;;;8.97;97.95
13968;BME280;39536;52.198;9.920;2023-04-26T11:55:06;100873.19;;;9.16;96.25
13968;BME280;39536;52.198;9.920;2023-04-26T11:57:34;100874.81;;;9.19;95.97
13968;BME280;39536;52.198;9.920;2023-04-26T12:00:08;100873.06;;;9.21;96.02
13968;BME280;39536;52.198;9.920;2023-04-26T12:02:36;100877.00;;;9.39;96.92
13968;BME280;39536;52.198;9.920;2023-04-26T12:05:04;100874.75;;;9.22;97.84
13968;BME280;39536;52.198;9.920;2023-04-26T12:07:33;100889.69;;;9.14;95.85
13968;BME280;39536;52.198;9.920;2023-04-26T12:10:14;100873.88;;;9.23;95.35
13968;BME280;39536;52.198;9.920;2023-04-26T12:12:46;100889.03;;;9.43;97.01
13968;BME280;39536;52.198;9.920;2023-04-26T12:15:14;100876.44;;;9.26;94.95
13968;BME280;39536;52.198;9.920;2023-04-26T12:17:51;100879.06;;;9.62;94.77
13968;BME280;39536;52.198;9.920;2023-04-26T12:20:18;100875.06;;;9.48;90.55
13968;BME280;39536;52.198;9.920;2023-04-26T12:22:56;100869.91;;;9.45;90.41
13968;BME280;39536;52.198;9.920;2023-04-26T12:25:24;100882.41;;;9.30;90.58
13968;BME280;39536;52.198;9.920;2023-04-26T12:27:51;100879.63;;;9.37;90.39
13968;BME280;39536;52.198;9.920;2023-04-26T12:30:18;100882.78;;;9.13;89.23
13968;BME280;39536;52.198;9.920;2023-04-26T12:32:45;100887.94;;;9.14;92.50
13968;BME280;39536;52.198;9.920;2023-04-26T12:35:12;100882.19;;;8.98;94.94
13968;BME280;39536;52.198;9.920;2023-04-26T12:37:39;100874.81;;;9.19;93.08
13968;BME280;39536;52.198;9.920;2023-04-26T12:40:07;100868.53;;;9.68;93.53
13968;BME280;39536;52.198;9.920;2023-04-26T12:42:36;100865.28;;;10.31;86.76
13968;BME280;39536;52.198;9.920;2023-04-26T12:45:03;100880.19;;;10.57;84.71
13968;BME280;39536;52.198;9.920;2023-04-26T12:47:30;100882.50;;;10.35;81.24
13968;BME280;39536;52.198;9.920;2023-04-26T12:49:57;100870.41;;;9.99;82.81
13968;BME280;39536;52.198;9.920;2023-04-26T12:52:25;100855.56;;;10.02;81.76
13968;BME280;39536;52.198;9.920;2023-04-26T12:54:52;100871.63;;;10.18;81.41
13968;BME280;39536;52.198;9.920;2023-04-26T12:57:19;100861.03;;;10.27;76.85
13968;BME280;39536;52.198;9.920;2023-04-26T12:59:47;100851.03;;;10.45;76.58
13968;BME280;39536;52.198;9.920;2023-04-26T13:02:13;100875.47;;;10.39;72.40
13968;BME280;39536;52.198;9.920;2023-04-26T13:04:40;100858.50;;;10.23;73.88